Time;durP1;ratioP1;P1;durP2;ratioP2;P2;SDS_P1;SDS_P2;PMS_P1;PMS_P2;Temp;Humidity;BMP_temperature;BMP_pressure;BME280_temperature;BME280_humidity;BME280_pressure;Samples;Min_cycle;Max_cycle;Signal;HPM_P1;HPM_P2
2021/06/11 00:01:03;;;;;;;12.53;9.67;;;18.90;99.90;;;;;;5114711;28;20218;-65
2021/06/11 00:03:30;;;;;;;12.37;9.60;;;18.90;99.90;;;;;;5114627;28;20208;-65
2021/06/11 00:05:56;;;;;;;10.93;9.20;;;18.90;99.90;;;;;;5114682;28;20208;-65
2021/06/11 00:08:22;;;;;;;11.27;9.67;;;18.80;99.90;;;;;;5114332;28;20211;-65
2021/06/11 00:10:49;;;;;;;14.00;9.97;;;18.80;99.90;;;;;;5114645;28;20199;-65
2021/06/11 00:13:15;;;;;;;13.87;10.30;;;18.80;99.90;;;;;;5114525;28;20203;-65
2021/06/11 00:15:41;;;;;;;15.00;9.97;;;18.70;99.90;;;;;;5114571;28;20204;-65
2021/06/11 00:18:08;;;;;;;12.00;9.33;;;18.70;99.90;;;;;;5114278;28;20223;-65
2021/06/11 00:20:35;;;;;;;11.60;9.30;;;18.70;99.90;;;;;;5114235;28;20200;-65
2021/06/11 00:23:02;;;;;;;12.63;9.47;;;18.60;99.90;;;;;;5114186;28;20218;-65
2021/06/11 00:25:28;;;;;;;10.53;8.90;;;18.50;99.90;;;;;;5114326;28;20268;-65
2021/06/11 00:27:58;;;;;;;14.87;9.40;;;18.50;99.90;;;;;;5114284;28;20226;-65
2021/06/11 00:30:26;;;;;;;11.80;9.10;;;18.40;99.90;;;;;;5114121;28;20231;-65
2021/06/11 00:32:52;;;;;;;15.67;9.50;;;18.30;99.90;;;;;;5114137;28;20208;-65
2021/06/11 00:35:19;;;;;;;12.10;9.30;;;18.20;99.90;;;;;;5113885;28;20725;-65
2021/06/11 00:37:46;;;;;;;14.37;8.97;;;18.20;99.90;;;;;;5113958;28;20236;-64
2021/06/11 00:40:13;;;;;;;12.23;8.80;;;18.10;99.90;;;;;;5113829;28;20630;-64
2021/06/11 00:42:40;;;;;;;12.80;8.67;;;18.10;99.90;;;;;;5113517;28;20207;-65
2021/06/11 00:45:08;;;;;;;13.90;8.60;;;18.00;99.90;;;;;;5113809;28;20218;-65
2021/06/11 00:47:35;;;;;;;13.00;8.13;;;18.00;99.90;;;;;;5113658;28;20756;-65
2021/06/11 00:50:01;;;;;;;10.20;8.20;;;17.90;99.90;;;;;;5113418;28;20729;-65
2021/06/11 00:52:27;;;;;;;9.80;8.00;;;17.90;99.90;;;;;;5113915;28;20214;-64
2021/06/11 00:54:55;;;;;;;9.83;7.80;;;17.80;99.90;;;;;;5113865;28;20207;-64
2021/06/11 00:57:21;;;;;;;10.63;8.23;;;17.80;99.90;;;;;;5113536;28;20231;-65
2021/06/11 00:59:47;;;;;;;10.40;7.93;;;17.70;99.90;;;;;;5113559;28;20207;-65
2021/06/11 01:02:15;;;;;;;11.97;8.00;;;17.60;99.90;;;;;;5113275;28;20264;-65
2021/06/11 01:04:41;;;;;;;8.83;7.77;;;17.50;99.90;;;;;;5113415;28;21271;-64
2021/06/11 01:07:08;;;;;;;11.23;8.33;;;17.50;99.90;;;;;;5113453;28;20246;-64
2021/06/11 01:09:37;;;;;;;13.60;8.10;;;17.40;99.90;;;;;;5113510;28;20207;-65
2021/06/11 01:12:07;;;;;;;13.93;8.57;;;17.30;99.90;;;;;;5113246;28;20222;-65
2021/06/11 01:14:34;;;;;;;9.70;8.63;;;17.30;99.90;;;;;;5113438;28;20211;-65
2021/06/11 01:17:01;;;;;;;15.20;8.00;;;17.30;99.90;;;;;;5112821;28;20231;-65
2021/06/11 01:19:32;;;;;;;10.20;8.87;;;17.30;99.90;;;;;;5113385;28;20208;-65
2021/06/11 01:22:03;;;;;;;9.77;8.60;;;17.20;99.90;;;;;;5113139;28;20211;-65
2021/06/11 01:24:34;;;;;;;10.27;7.97;;;17.20;99.90;;;;;;5113235;28;20248;-65
2021/06/11 01:27:03;;;;;;;10.17;8.90;;;17.20;99.90;;;;;;5113122;28;20233;-65
2021/06/11 01:29:31;;;;;;;14.23;9.17;;;17.10;99.90;;;;;;5112914;28;20199;-65
2021/06/11 01:32:00;;;;;;;10.33;9.07;;;17.10;99.90;;;;;;5112675;28;20211;-65
2021/06/11 01:34:30;;;;;;;11.40;9.23;;;17.00;99.90;;;;;;5113261;28;20206;-65
2021/06/11 01:37:01;;;;;;;11.13;9.20;;;17.00;99.90;;;;;;5112648;28;20683;-64
2021/06/11 01:39:29;;;;;;;9.70;8.73;;;17.00;99.90;;;;;;5112944;28;20204;-64
2021/06/11 01:41:57;;;;;;;10.63;9.53;;;17.00;99.90;;;;;;5112745;28;20204;-64
2021/06/11 01:44:26;;;;;;;13.53;9.90;;;16.90;99.90;;;;;;5113307;28;20215;-65
2021/06/11 01:46:55;;;;;;;11.63;8.40;;;16.80;99.90;;;;;;5113072;28;20231;-65
2021/06/11 01:49:23;;;;;;;11.40;9.63;;;16.80;99.90;;;;;;5113147;28;20207;-64
2021/06/11 01:51:51;;;;;;;13.73;8.87;;;16.70;99.90;;;;;;5113038;28;20200;-64
2021/06/11 01:54:18;;;;;;;10.60;9.27;;;16.70;99.90;;;;;;5112230;28;20327;-64
2021/06/11 01:56:45;;;;;;;12.03;9.77;;;16.70;99.90;;;;;;5112660;28;20224;-63
2021/06/11 01:59:12;;;;;;;10.77;8.77;;;16.60;99.90;;;;;;5112781;28;20199;-63
2021/06/11 02:01:40;;;;;;;13.97;9.57;;;16.60;99.90;;;;;;5112565;28;20199;-63
2021/06/11 02:04:07;;;;;;;12.63;10.07;;;16.60;99.90;;;;;;5112563;28;20203;-63
2021/06/11 02:06:34;;;;;;;16.27;11.00;;;16.60;99.90;;;;;;5112561;28;20227;-63
2021/06/11 02:09:02;;;;;;;12.03;10.53;;;16.50;99.90;;;;;;5112424;28;20584;-63
2021/06/11 02:11:28;;;;;;;11.03;9.80;;;16.50;99.90;;;;;;5112651;28;20203;-63
2021/06/11 02:13:55;;;;;;;10.87;9.50;;;16.50;99.90;;;;;;5112599;28;20575;-63
2021/06/11 02:16:25;;;;;;;13.83;10.20;;;16.40;99.90;;;;;;5112536;28;20636;-63
2021/06/11 02:18:53;;;;;;;13.50;9.80;;;16.40;99.90;;;;;;5112528;28;20672;-63
2021/06/11 02:21:20;;;;;;;12.37;10.30;;;16.30;99.90;;;;;;5113669;28;20233;-63
2021/06/11 02:23:46;;;;;;;14.17;11.17;;;16.30;99.90;;;;;;5115213;28;20208;-63
2021/06/11 02:26:13;;;;;;;14.13;11.37;;;16.30;99.90;;;;;;5114374;28;20231;-63
2021/06/11 02:28:40;;;;;;;14.17;10.93;;;16.20;99.90;;;;;;5113465;28;20550;-63
2021/06/11 02:31:06;;;;;;;13.57;11.23;;;16.30;99.90;;;;;;5123994;28;20210;-63
2021/06/11 02:33:32;;;;;;;13.63;11.07;;;16.20;99.90;;;;;;5124569;28;20428;-63
2021/06/11 02:36:00;;;;;;;13.77;11.40;;;16.20;99.90;;;;;;5120860;28;20264;-63
2021/06/11 02:38:26;;;;;;;14.37;12.87;;;16.20;99.90;;;;;;5111972;28;20227;-63
2021/06/11 02:40:53;;;;;;;17.10;11.03;;;16.20;99.90;;;;;;5112125;28;20203;-63
2021/06/11 02:43:22;;;;;;;14.50;11.57;;;16.10;99.90;;;;;;5112308;28;20580;-63
2021/06/11 02:45:53;;;;;;;18.23;12.83;;;16.10;99.90;;;;;;5111830;28;20261;-63
2021/06/11 02:48:25;;;;;;;19.03;13.13;;;16.10;99.90;;;;;;5112164;28;20261;-63
2021/06/11 02:50:57;;;;;;;12.93;11.30;;;16.10;99.90;;;;;;5111568;28;20567;-63
2021/06/11 02:53:27;;;;;;;16.77;11.50;;;16.00;99.90;;;;;;5112326;28;20301;-63
2021/06/11 02:56:01;;;;;;;17.67;11.67;;;16.00;99.90;;;;;;5112403;28;20570;-63
2021/06/11 02:58:37;;;;;;;14.10;12.37;;;16.00;99.90;;;;;;5111954;28;20239;-63
2021/06/11 03:01:05;;;;;;;15.80;12.57;;;15.90;99.90;;;;;;5111732;28;20219;-63
2021/06/11 03:03:36;;;;;;;18.17;13.60;;;15.90;99.90;;;;;;5111787;28;20719;-63
2021/06/11 03:06:04;;;;;;;16.93;12.80;;;15.90;99.90;;;;;;5114102;28;20203;-63
2021/06/11 03:08:36;;;;;;;17.43;14.17;;;15.80;99.90;;;;;;5115801;28;20203;-63
2021/06/11 03:11:05;;;;;;;18.30;14.60;;;15.80;99.90;;;;;;5115739;28;20268;-63
2021/06/11 03:13:33;;;;;;;17.77;13.53;;;15.80;99.90;;;;;;5115575;28;20248;-63
2021/06/11 03:16:00;;;;;;;20.17;15.83;;;15.80;99.90;;;;;;5115648;28;20210;-63
2021/06/11 03:18:30;;;;;;;19.43;15.47;;;15.80;99.90;;;;;;5115537;28;20232;-63
2021/06/11 03:21:01;;;;;;;19.10;14.93;;;15.80;99.90;;;;;;5115498;28;20568;-63
2021/06/11 03:23:33;;;;;;;19.73;16.37;;;15.70;99.90;;;;;;5115536;28;20215;-63
2021/06/11 03:26:03;;;;;;;23.50;15.83;;;15.70;99.90;;;;;;5115548;28;20199;-63
2021/06/11 03:28:35;;;;;;;24.00;15.73;;;15.70;99.90;;;;;;5115187;28;20208;-63
2021/06/11 03:31:03;;;;;;;19.47;15.50;;;15.70;99.90;;;;;;5115271;28;20218;-63
2021/06/11 03:33:33;;;;;;;18.90;15.57;;;15.70;99.90;;;;;;5115390;28;20621;-63
2021/06/11 03:36:04;;;;;;;24.27;16.53;;;15.70;99.90;;;;;;5115198;28;20551;-63
2021/06/11 03:38:36;;;;;;;20.30;15.47;;;15.70;99.90;;;;;;5114938;28;20594;-63
2021/06/11 03:41:03;;;;;;;20.37;15.80;;;15.70;99.90;;;;;;5115300;28;20218;-63
2021/06/11 03:43:30;;;;;;;20.57;15.53;;;15.70;99.90;;;;;;5114920;28;20566;-63
2021/06/11 03:45:58;;;;;;;18.10;14.43;;;15.70;99.90;;;;;;5115082;28;20207;-63
2021/06/11 03:48:27;;;;;;;17.90;14.53;;;15.70;99.90;;;;;;5115094;28;20195;-63
2021/06/11 03:50:54;;;;;;;17.63;14.77;;;15.70;99.90;;;;;;5114796;28;20199;-63
2021/06/11 03:53:24;;;;;;;22.03;14.17;;;15.70;1.00;;;;;;5114922;28;20203;-63
2021/06/11 03:56:02;;;;;;;16.53;14.60;;;15.70;1.00;;;;;;5114981;28;20729;-63
2021/06/11 03:58:32;;;;;;;20.27;14.67;;;15.70;1.00;;;;;;5114955;28;20590;-63
2021/06/11 04:01:01;;;;;;;17.47;14.37;;;15.70;1.00;;;;;;5115109;28;20669;-63
2021/06/11 04:03:27;;;;;;;17.73;14.57;;;15.80;1.00;;;;;;5115802;28;20207;-63
2021/06/11 04:06:01;;;;;;;20.70;14.53;;;15.80;1.00;;;;;;5114588;28;20199;-63
2021/06/11 04:08:33;;;;;;;18.57;15.30;;;15.80;1.00;;;;;;5115184;28;20284;-63
2021/06/11 04:11:01;;;;;;;17.97;14.40;;;15.90;1.00;;;;;;5112186;28;20276;-63
2021/06/11 04:13:34;;;;;;;17.27;15.10;;;15.90;1.00;;;;;;5094732;28;20227;-63
2021/06/11 04:16:01;;;;;;;17.97;14.30;;;16.00;1.00;;;;;;5113003;28;20671;-63
2021/06/11 04:18:31;;;;;;;22.97;16.40;;;16.00;1.00;;;;;;5114742;28;20235;-63
2021/06/11 04:20:59;;;;;;;25.03;17.10;;;16.00;1.00;;;;;;5116070;28;20215;-63
2021/06/11 04:23:28;;;;;;;23.37;16.97;;;16.10;1.00;;;;;;5115547;28;20207;-63
2021/06/11 04:25:56;;;;;;;26.40;17.63;;;16.10;1.00;;;;;;5114228;28;20211;-63
2021/06/11 04:28:26;;;;;;;23.23;19.07;;;16.20;1.00;;;;;;5114362;28;20204;-63
2021/06/11 04:30:53;;;;;;;23.10;19.13;;;16.20;1.00;;;;;;5113734;28;20326;-63
2021/06/11 04:33:22;;;;;;;23.20;18.53;;;16.30;1.00;;;;;;5110360;28;20196;-63
2021/06/11 04:35:48;;;;;;;23.63;19.10;;;16.30;1.00;;;;;;5113973;28;20208;-63
2021/06/11 04:38:15;;;;;;;23.43;19.73;;;16.30;1.00;;;;;;5113551;28;20227;-62
2021/06/11 04:40:42;;;;;;;24.00;19.73;;;16.30;1.00;;;;;;5113716;28;20199;-62
2021/06/11 04:43:08;;;;;;;21.07;18.83;;;16.40;1.00;;;;;;5113598;28;20226;-62
2021/06/11 04:45:36;;;;;;;23.97;18.40;;;16.50;1.00;;;;;;5113558;28;20214;-62
2021/06/11 04:48:02;;;;;;;22.03;18.20;;;16.50;1.00;;;;;;5113530;28;20588;-62
2021/06/11 04:50:28;;;;;;;22.03;18.70;;;16.60;1.00;;;;;;5113418;28;20635;-62
2021/06/11 04:52:55;;;;;;;21.27;17.93;;;16.60;1.00;;;;;;5113655;28;20575;-62
2021/06/11 04:55:21;;;;;;;23.50;18.37;;;16.60;1.00;;;;;;5113469;28;20207;-62
2021/06/11 04:57:47;;;;;;;20.83;17.30;;;16.60;1.00;;;;;;5113088;28;20280;-62
2021/06/11 05:00:15;;;;;;;21.90;16.97;;;16.60;1.00;;;;;;5113573;28;20901;-61
2021/06/11 05:02:42;;;;;;;24.53;16.60;;;16.70;1.00;;;;;;5113613;28;20585;-62
2021/06/11 05:05:09;;;;;;;19.33;16.07;;;16.70;1.00;;;;;;5113542;28;20264;-62
2021/06/11 05:07:36;;;;;;;23.60;16.47;;;16.80;1.00;;;;;;5113252;28;20219;-62
2021/06/11 05:10:03;;;;;;;18.70;16.57;;;16.80;1.00;;;;;;5113180;28;20205;-62
2021/06/11 05:12:29;;;;;;;20.43;16.37;;;16.90;1.00;;;;;;5112948;28;20663;-62
2021/06/11 05:14:55;;;;;;;18.73;15.87;;;16.90;1.00;;;;;;5113242;28;20226;-62
2021/06/11 05:17:21;;;;;;;25.03;16.37;;;17.00;99.90;;;;;;5113158;28;20227;-62
2021/06/11 05:19:48;;;;;;;24.87;16.97;;;17.10;99.90;;;;;;5113109;28;20231;-62
2021/06/11 05:22:15;;;;;;;20.80;17.17;;;17.20;99.90;;;;;;5113054;28;20268;-61
2021/06/11 05:24:42;;;;;;;21.10;16.23;;;17.20;99.90;;;;;;5113162;28;20207;-62
2021/06/11 05:27:08;;;;;;;19.13;16.90;;;17.30;99.90;;;;;;5112103;28;20220;-64
2021/06/11 05:29:34;;;;;;;20.53;17.60;;;17.40;99.90;;;;;;5100143;28;20232;-62
2021/06/11 05:32:00;;;;;;;21.60;18.23;;;17.50;99.90;;;;;;5092616;28;20204;-63
2021/06/11 05:34:27;;;;;;;24.23;19.23;;;17.50;99.90;;;;;;5106491;28;20573;-62
2021/06/11 05:36:55;;;;;;;28.67;17.73;;;17.60;99.90;;;;;;5112533;28;20727;-62
2021/06/11 05:39:21;;;;;;;23.07;17.27;;;17.70;1.00;;;;;;5113027;28;20200;-62
2021/06/11 05:41:47;;;;;;;21.97;17.77;;;17.80;99.90;;;;;;5112432;28;20215;-62
2021/06/11 05:44:13;;;;;;;21.93;16.93;;;17.90;99.90;;;;;;5113019;28;20218;-62
2021/06/11 05:46:39;;;;;;;21.23;17.40;;;18.00;99.90;;;;;;5112817;28;20231;-64
2021/06/11 05:49:06;;;;;;;24.20;16.67;;;18.00;99.90;;;;;;5112880;28;20206;-61
2021/06/11 05:51:32;;;;;;;19.57;16.50;;;18.10;99.90;;;;;;5112399;28;20257;-61
2021/06/11 05:54:00;;;;;;;23.33;17.47;;;18.20;99.90;;;;;;5112678;28;20206;-64
2021/06/11 05:56:27;;;;;;;23.97;16.33;;;18.40;99.90;;;;;;5112677;28;20235;-60
2021/06/11 05:58:53;;;;;;;17.90;15.97;;;18.40;99.90;;;;;;5112979;28;20258;-58
2021/06/11 06:01:19;;;;;;;23.40;15.93;;;18.60;99.90;;;;;;5112584;28;20203;-64
2021/06/11 06:03:47;;;;;;;21.87;16.97;;;18.70;99.90;;;;;;5112820;28;20738;-64
2021/06/11 06:06:13;;;;;;;23.73;15.60;;;18.80;99.90;;;;;;5112383;28;20223;-65
2021/06/11 06:08:39;;;;;;;22.73;16.90;;;18.80;99.90;;;;;;5112352;28;20206;-64
2021/06/11 06:11:06;;;;;;;22.17;16.60;;;18.80;99.90;;;;;;5112607;28;20211;-65
2021/06/11 06:13:32;;;;;;;19.70;15.93;;;18.90;99.90;;;;;;5111995;28;20672;-65
2021/06/11 06:15:59;;;;;;;21.70;16.57;;;18.90;99.90;;;;;;5107235;28;20204;-61
2021/06/11 06:18:25;;;;;;;19.40;15.50;;;19.00;99.90;;;;;;5111400;28;20219;-65
2021/06/11 06:20:51;;;;;;;19.97;15.27;;;19.20;99.90;;;;;;5111837;28;20679;-64
2021/06/11 06:23:17;;;;;;;25.43;15.97;;;19.40;99.90;;;;;;5111674;28;20203;-63
2021/06/11 06:25:43;;;;;;;25.73;15.77;;;19.50;99.90;;;;;;5112048;28;20200;-65
2021/06/11 06:28:11;;;;;;;22.57;16.27;;;19.60;99.90;;;;;;5111657;28;20219;-62
2021/06/11 06:30:37;;;;;;;21.63;15.53;;;19.60;99.90;;;;;;5111924;28;20203;-64
2021/06/11 06:33:03;;;;;;;20.27;14.67;;;19.70;99.90;;;;;;5111635;28;20751;-65
2021/06/11 06:35:29;;;;;;;17.63;15.20;;;19.90;99.90;;;;;;5111876;28;20249;-65
2021/06/11 06:37:55;;;;;;;25.37;15.27;;;20.00;99.90;;;;;;5111204;28;20231;-64
2021/06/11 06:40:22;;;;;;;19.63;14.40;;;20.00;99.90;;;;;;5112692;28;20731;-65
2021/06/11 06:42:48;;;;;;;18.97;14.17;;;20.20;99.90;;;;;;5116084;28;20203;-65
2021/06/11 06:45:19;;;;;;;19.63;14.57;;;20.40;99.90;;;;;;5115819;28;20203;-65
2021/06/11 06:47:46;;;;;;;19.83;15.80;;;20.50;99.90;;;;;;5115693;28;20348;-66
2021/06/11 06:50:14;;;;;;;19.83;14.70;;;20.50;99.90;;;;;;5115398;28;20754;-65
2021/06/11 06:52:40;;;;;;;19.53;15.23;;;20.60;99.90;;;;;;5115635;28;20208;-68
2021/06/11 06:55:07;;;;;;;20.50;14.97;;;20.70;99.90;;;;;;5115715;28;20203;-67
2021/06/11 06:57:34;;;;;;;20.80;14.30;;;20.90;99.90;;;;;;5114377;28;20227;-67
2021/06/11 07:00:00;;;;;;;22.30;15.27;;;21.00;99.90;;;;;;5115507;28;20229;-65
2021/06/11 07:02:27;;;;;;;23.93;14.50;;;21.20;99.90;;;;;;5115407;28;20208;-64
2021/06/11 07:04:53;;;;;;;19.27;13.70;;;21.30;99.90;;;;;;5115428;28;20210;-64
2021/06/11 07:07:20;;;;;;;20.17;13.80;;;21.40;99.90;;;;;;5115230;28;20224;-64
2021/06/11 07:09:46;;;;;;;23.70;14.37;;;21.50;99.90;;;;;;5115468;28;20203;-64
2021/06/11 07:12:12;;;;;;;18.60;14.07;;;21.50;99.90;;;;;;5115352;28;20199;-60
2021/06/11 07:14:38;;;;;;;18.33;12.80;;;21.70;99.90;;;;;;5115334;28;20253;-62
2021/06/11 07:17:05;;;;;;;21.30;14.07;;;21.90;99.90;;;;;;5098199;28;20224;-63
2021/06/11 07:19:33;;;;;;;24.57;13.60;;;21.90;99.90;;;;;;5094599;28;20212;-64
2021/06/11 07:21:59;;;;;;;18.90;13.57;;;22.00;99.90;;;;;;5094890;28;20200;-64
2021/06/11 07:24:25;;;;;;;20.87;12.73;;;21.90;99.90;;;;;;5094799;28;20336;-62
2021/06/11 07:26:51;;;;;;;22.10;13.80;;;22.00;99.90;;;;;;5094564;28;20285;-64
2021/06/11 07:29:17;;;;;;;19.53;13.83;;;22.20;99.90;;;;;;5094365;28;20269;-61
2021/06/11 07:31:43;;;;;;;25.17;14.03;;;22.30;99.90;;;;;;5094062;28;20211;-63
2021/06/11 07:34:10;;;;;;;20.60;13.50;;;22.40;99.90;;;;;;5094206;28;20204;-63
2021/06/11 07:36:37;;;;;;;19.03;13.90;;;22.50;99.90;;;;;;5094391;28;20231;-63
2021/06/11 07:39:04;;;;;;;22.23;13.83;;;22.50;99.90;;;;;;5094201;28;20224;-64
2021/06/11 07:41:30;;;;;;;17.63;13.10;;;22.60;99.90;;;;;;5094396;28;20261;-61
2021/06/11 07:43:56;;;;;;;17.50;12.53;;;22.70;99.90;;;;;;5094277;28;20321;-63
2021/06/11 07:46:23;;;;;;;18.03;11.80;;;22.80;99.90;;;;;;5112743;28;20296;-63
2021/06/11 07:48:49;;;;;;;19.87;12.57;;;23.10;99.90;;;;;;5114349;28;20199;-66
2021/06/11 07:51:15;;;;;;;20.27;11.23;;;23.10;99.90;;;;;;5113540;28;20660;-63
2021/06/11 07:53:43;;;;;;;20.60;12.50;;;23.10;99.90;;;;;;5114276;28;20256;-63
2021/06/11 07:56:10;;;;;;;20.33;12.37;;;23.30;99.90;;;;;;5113171;28;20314;-62
2021/06/11 07:58:36;;;;;;;16.60;10.67;;;23.50;99.90;;;;;;5114160;28;20227;-63
2021/06/11 08:01:03;;;;;;;17.17;12.60;;;23.70;99.90;;;;;;5113784;28;20200;-63
2021/06/11 08:03:29;;;;;;;18.53;11.70;;;23.80;99.90;;;;;;5113854;28;20200;-63
2021/06/11 08:05:57;;;;;;;18.20;11.70;;;23.80;99.90;;;;;;5113820;28;20207;-63
2021/06/11 08:08:24;;;;;;;21.97;11.83;;;23.90;99.90;;;;;;5113779;28;20211;-63
2021/06/11 08:10:51;;;;;;;20.17;11.77;;;24.10;99.90;;;;;;5113884;28;20290;-63
2021/06/11 08:13:17;;;;;;;23.43;12.67;;;24.20;99.90;;;;;;5113943;28;20261;-63
2021/06/11 08:15:43;;;;;;;24.17;12.97;;;24.10;99.90;;;;;;5113732;28;20214;-63
2021/06/11 08:18:10;;;;;;;23.93;11.90;;;24.00;99.90;;;;;;5113301;28;20239;-63
2021/06/11 08:20:36;;;;;;;21.90;11.93;;;24.00;99.90;;;;;;5113544;28;20207;-63
2021/06/11 08:23:02;;;;;;;26.33;13.03;;;24.10;99.90;;;;;;5114059;28;20207;-63
2021/06/11 08:25:28;;;;;;;21.50;12.97;;;24.10;99.90;;;;;;5113705;28;20229;-63
2021/06/11 08:27:57;;;;;;;19.63;13.17;;;24.30;99.90;;;;;;5113337;28;20268;-67
2021/06/11 08:30:24;;;;;;;20.37;12.03;;;24.30;99.90;;;;;;5112957;28;20246;-63
2021/06/11 08:32:50;;;;;;;21.60;12.33;;;24.30;99.90;;;;;;5113542;28;20725;-65
2021/06/11 08:35:17;;;;;;;24.43;12.33;;;24.20;99.90;;;;;;5113623;28;20204;-65
2021/06/11 08:37:43;;;;;;;25.43;13.37;;;24.20;99.90;;;;;;5112715;28;20235;-65
2021/06/11 08:40:10;;;;;;;23.17;12.33;;;24.20;99.90;;;;;;5113198;28;20320;-65
2021/06/11 08:42:38;;;;;;;24.97;14.03;;;24.10;99.90;;;;;;5113371;28;20211;-65
2021/06/11 08:45:08;;;;;;;23.93;12.53;;;23.80;99.90;;;;;;5113053;28;20245;-65
2021/06/11 08:47:35;;;;;;;19.90;12.13;;;23.80;99.90;;;;;;5112499;28;20220;-65
2021/06/11 08:50:02;;;;;;;24.27;11.90;;;23.90;99.90;;;;;;5093976;28;20208;-64
2021/06/11 08:52:30;;;;;;;17.83;11.63;;;24.10;99.90;;;;;;5093257;28;20560;-61
2021/06/11 08:54:57;;;;;;;19.37;10.97;;;24.20;99.90;;;;;;5093177;28;20239;-65
2021/06/11 08:57:24;;;;;;;19.27;11.23;;;24.40;99.90;;;;;;5092146;28;20224;-64
2021/06/11 08:59:52;;;;;;;21.60;11.97;;;24.50;99.90;;;;;;5093326;28;20930;-63
2021/06/11 09:02:20;;;;;;;21.70;12.60;;;24.70;99.90;;;;;;5092954;28;20668;-63
2021/06/11 09:04:50;;;;;;;19.97;11.97;;;25.10;99.90;;;;;;5092437;28;20211;-64
2021/06/11 09:07:26;;;;;;;23.53;12.80;;;25.30;99.90;;;;;;5092857;28;20220;-63
2021/06/11 09:09:53;;;;;;;22.27;13.77;;;25.50;99.90;;;;;;5092761;28;20628;-66
2021/06/11 09:12:38;;;;;;;22.60;14.60;;;25.30;99.90;;;;;;5092930;28;20567;-68
2021/06/11 09:15:08;;;;;;;23.87;14.47;;;24.80;99.90;;;;;;5092539;28;20254;-65
2021/06/11 09:17:41;;;;;;;20.60;14.80;;;24.60;99.90;;;;;;5092472;28;20314;-67
2021/06/11 09:20:11;;;;;;;25.57;17.27;;;24.40;99.90;;;;;;5092656;28;20223;-65
2021/06/11 09:22:45;;;;;;;23.80;15.97;;;24.10;99.90;;;;;;5092366;28;20204;-65
2021/06/11 09:25:33;;;;;;;20.83;17.00;;;24.00;99.90;;;;;;5092594;28;20207;-62
2021/06/11 09:28:02;;;;;;;23.23;16.37;;;24.10;99.90;;;;;;5092000;28;20221;-63
2021/06/11 09:30:34;;;;;;;23.53;18.87;;;24.30;99.90;;;;;;5092040;28;20668;-64
2021/06/11 09:33:04;;;;;;;22.93;20.47;;;24.20;99.90;;;;;;5092139;28;20211;-64
2021/06/11 09:35:38;;;;;;;24.67;19.93;;;24.00;99.90;;;;;;5091461;28;20219;-64
2021/06/11 09:38:18;;;;;;;22.77;17.87;;;24.30;99.90;;;;;;5091857;28;20235;-63
2021/06/11 09:41:10;;;;;;;23.73;20.30;;;24.40;99.90;;;;;;5058256;28;20883;-63
2021/06/11 09:43:54;;;;;;;23.03;19.53;;;24.40;99.90;;;;;;5092276;28;20288;-64
2021/06/11 09:46:20;;;;;;;32.37;21.37;;;24.40;99.90;;;;;;5091874;28;20650;-65
2021/06/11 09:48:50;;;;;;;23.23;20.63;;;24.50;99.90;;;;;;5091669;28;20669;-63
2021/06/11 09:51:18;;;;;;;26.90;20.70;;;24.80;99.90;;;;;;5091958;28;20719;-66
2021/06/11 09:53:44;;;;;;;28.57;21.33;;;24.90;99.90;;;;;;5091722;28;20208;-65
2021/06/11 09:56:19;;;;;;;24.17;20.63;;;24.90;99.90;;;;;;5091976;28;20227;-65
2021/06/11 09:58:45;;;;;;;22.33;19.77;;;25.00;99.90;;;;;;5091523;28;20223;-65
2021/06/11 10:01:13;;;;;;;20.73;17.47;;;24.90;99.90;;;;;;5091959;28;20201;-64
2021/06/11 10:03:42;;;;;;;20.73;17.47;;;24.60;99.90;;;;;;5092095;28;20204;-64
2021/06/11 10:06:12;;;;;;;19.73;14.60;;;24.60;99.90;;;;;;5091445;28;20278;-64
2021/06/11 10:08:39;;;;;;;20.30;14.30;;;24.80;99.90;;;;;;5091554;28;20210;-64
2021/06/11 10:11:07;;;;;;;17.07;12.63;;;25.00;99.90;;;;;;5091704;28;20257;-64
2021/06/11 10:13:34;;;;;;;17.03;12.00;;;25.10;99.90;;;;;;5091809;28;20265;-65
2021/06/11 10:16:04;;;;;;;26.33;13.73;;;25.30;99.90;;;;;;5090692;28;20257;-65
2021/06/11 10:18:30;;;;;;;15.43;11.83;;;25.50;99.90;;;;;;5091139;28;20220;-65
2021/06/11 10:20:58;;;;;;;15.80;11.47;;;25.60;99.90;;;;;;5091191;28;20208;-65
2021/06/11 10:23:27;;;;;;;17.13;12.57;;;25.40;99.90;;;;;;5091972;28;20208;-63
2021/06/11 10:25:55;;;;;;;16.53;11.67;;;25.50;99.90;;;;;;5091592;28;20241;-63
2021/06/11 10:28:24;;;;;;;14.03;10.80;;;25.50;99.90;;;;;;5091006;28;20287;-63
2021/06/11 10:30:55;;;;;;;17.47;12.90;;;25.60;99.90;;;;;;5091312;28;20742;-64
2021/06/11 10:33:50;;;;;;;21.30;13.57;;;25.40;99.90;;;;;;5091489;28;20234;-65
2021/06/11 10:36:36;;;;;;;15.37;11.57;;;25.30;99.90;;;;;;5091440;28;20224;-66
2021/06/11 10:39:24;;;;;;;17.20;12.00;;;25.40;99.90;;;;;;5093464;28;20297;-65
2021/06/11 10:41:58;;;;;;;11.23;9.93;;;25.20;99.90;;;;;;5098731;28;20214;-65
2021/06/11 10:44:36;;;;;;;18.97;12.40;;;25.20;99.90;;;;;;5093906;28;20261;-63
2021/06/11 10:47:27;;;;;;;14.83;10.93;;;25.20;99.90;;;;;;5091202;28;20239;-65
2021/06/11 10:50:11;;;;;;;12.93;10.83;;;25.20;99.90;;;;;;5094064;28;20213;-66
2021/06/11 10:52:41;;;;;;;14.40;11.23;;;25.30;99.90;;;;;;5094561;28;20200;-66
2021/06/11 10:55:48;;;;;;;11.70;10.53;;;25.40;99.90;;;;;;5092124;28;20669;-64
2021/06/11 10:58:33;;;;;;;13.87;9.60;;;25.50;99.90;;;;;;5090833;28;20228;-65
2021/06/11 11:00:59;;;;;;;12.20;10.57;;;25.20;99.90;;;;;;5091322;28;20261;-64
2021/06/11 11:03:31;;;;;;;14.23;9.63;;;25.10;99.90;;;;;;5091480;28;20680;-64
2021/06/11 11:05:58;;;;;;;15.00;8.30;;;24.90;99.90;;;;;;5091033;28;20208;-64
2021/06/11 11:08:52;;;;;;;10.33;7.87;;;25.10;99.90;;;;;;5090768;28;20204;-65
2021/06/11 11:11:30;;;;;;;11.70;7.27;;;25.60;99.90;;;;;;5091210;28;20243;-65
2021/06/11 11:13:58;;;;;;;10.40;8.03;;;25.90;99.90;;;;;;5091295;28;20200;-67
2021/06/11 11:16:27;;;;;;;10.27;7.60;;;26.00;99.90;;;;;;5090937;28;20648;-65
2021/06/11 11:18:53;;;;;;;8.37;7.47;;;26.10;99.90;;;;;;5090734;28;20228;-65
2021/06/11 11:21:27;;;;;;;10.07;6.30;;;26.30;99.90;;;;;;5090950;28;20579;-65
2021/06/11 11:23:58;;;;;;;11.97;6.53;;;26.50;99.90;;;;;;5092131;28;20257;-66
2021/06/11 11:26:43;;;;;;;8.90;7.73;;;26.40;99.90;;;;;;5104931;28;20220;-65
2021/06/11 11:29:12;;;;;;;10.60;7.37;;;26.30;99.90;;;;;;5116161;28;20200;-64
2021/06/11 11:31:39;;;;;;;9.80;7.27;;;26.00;99.90;;;;;;5115505;28;20207;-64
2021/06/11 11:34:07;;;;;;;10.10;6.80;;;25.90;99.90;;;;;;5116023;28;20581;-64
2021/06/11 11:36:35;;;;;;;13.77;7.37;;;25.80;99.90;;;;;;5116377;28;20231;-64
2021/06/11 11:39:05;;;;;;;9.87;7.90;;;25.70;99.90;;;;;;5115567;28;20668;-64
2021/06/11 11:41:31;;;;;;;8.47;7.57;;;25.90;99.90;;;;;;5115697;28;20204;-65
2021/06/11 11:43:58;;;;;;;9.67;6.83;;;26.10;99.90;;;;;;5116518;28;20264;-66
2021/06/11 11:46:26;;;;;;;8.77;6.90;;;26.30;99.90;;;;;;5115033;28;20239;-66
2021/06/11 11:48:52;;;;;;;10.17;6.50;;;26.50;99.90;;;;;;5116513;28;20355;-68
2021/06/11 11:51:19;;;;;;;7.00;6.30;;;26.60;99.90;;;;;;5115426;28;20210;-67
2021/06/11 11:53:45;;;;;;;8.47;6.13;;;26.80;99.90;;;;;;5114618;28;20199;-63
2021/06/11 11:56:12;;;;;;;8.57;6.80;;;26.70;99.90;;;;;;5114245;28;20227;-63
2021/06/11 11:58:38;;;;;;;8.10;6.83;;;26.30;99.90;;;;;;5096145;28;20223;-64
2021/06/11 12:01:04;;;;;;;9.63;5.90;;;26.00;99.90;;;;;;5093675;28;20220;-65
2021/06/11 12:03:32;;;;;;;10.40;6.30;;;26.10;99.90;;;;;;5094124;28;20204;-63
2021/06/11 12:05:58;;;;;;;10.83;7.53;;;26.50;99.90;;;;;;5093728;28;20200;-67
2021/06/11 12:08:24;;;;;;;8.73;7.80;;;26.60;99.90;;;;;;5093374;28;20200;-65
2021/06/11 12:10:50;;;;;;;9.20;6.87;;;26.80;99.90;;;;;;5093787;28;20204;-65
2021/06/11 12:13:17;;;;;;;9.20;6.50;;;26.80;99.90;;;;;;5093427;28;20250;-65
2021/06/11 12:15:43;;;;;;;9.43;7.27;;;26.80;99.90;;;;;;5093812;28;20705;-65
2021/06/11 12:18:09;;;;;;;8.63;6.87;;;26.60;99.90;;;;;;5093094;28;20232;-66
2021/06/11 12:20:37;;;;;;;8.00;5.70;;;26.40;99.90;;;;;;5093667;28;20200;-65
2021/06/11 12:23:04;;;;;;;8.33;7.43;;;26.70;99.90;;;;;;5093483;28;20200;-66
2021/06/11 12:25:30;;;;;;;8.03;6.40;;;27.00;99.90;;;;;;5093646;28;20269;-65
2021/06/11 12:27:56;;;;;;;6.80;5.93;;;27.20;99.90;;;;;;5092906;28;20224;-65
2021/06/11 12:30:23;;;;;;;6.90;6.20;;;27.30;99.90;;;;;;5093378;28;20212;-65
2021/06/11 12:32:49;;;;;;;6.93;6.13;;;27.60;99.90;;;;;;5093363;28;20204;-66
2021/06/11 12:35:16;;;;;;;8.10;6.80;;;27.70;99.90;;;;;;5093255;28;20205;-67
2021/06/11 12:37:43;;;;;;;9.33;6.00;;;27.60;99.90;;;;;;5091926;28;20285;-66
2021/06/11 12:40:12;;;;;;;10.60;6.93;;;27.30;99.90;;;;;;5096348;28;20651;-65